sensor_id;sensor_type;location;lat;lon;timestamp;P1;durP1;ratioP1;P2;durP2;ratioP2
17596;SDS011;8917;50.942;6.946;2023-03-21T00:01:56;9.33;;;4.97;;
17596;SDS011;8917;50.942;6.946;2023-03-21T00:04:24;6.43;;;3.87;;
17596;SDS011;8917;50.942;6.946;2023-03-21T00:06:52;7.27;;;3.70;;
17596;SDS011;8917;50.942;6.946;2023-03-21T00:09:21;6.53;;;3.57;;
17596;SDS011;8917;50.942;6.946;2023-03-21T00:11:50;8.53;;;3.57;;
17596;SDS011;8917;50.942;6.946;2023-03-21T00:14:20;6.93;;;3.57;;
17596;SDS011;8917;50.942;6.946;2023-03-21T00:16:50;7.10;;;3.47;;
17596;SDS011;8917;50.942;6.946;2023-03-21T00:19:17;7.30;;;3.50;;
17596;SDS011;8917;50.942;6.946;2023-03-21T00:21:45;7.67;;;4.00;;
17596;SDS011;8917;50.942;6.946;2023-03-21T00:24:16;6.07;;;3.27;;
17596;SDS011;8917;50.942;6.946;2023-03-21T00:26:44;9.03;;;3.43;;
17596;SDS011;8917;50.942;6.946;2023-03-21T00:29:11;7.00;;;3.77;;
17596;SDS011;8917;50.942;6.946;2023-03-21T00:31:39;6.27;;;3.03;;
17596;SDS011;8917;50.942;6.946;2023-03-21T00:34:06;7.60;;;3.70;;
17596;SDS011;8917;50.942;6.946;2023-03-21T00:36:33;5.97;;;3.37;;
17596;SDS011;8917;50.942;6.946;2023-03-21T00:39:00;6.13;;;3.90;;
17596;SDS011;8917;50.942;6.946;2023-03-21T00:41:28;7.27;;;4.03;;
17596;SDS011;8917;50.942;6.946;2023-03-21T00:43:57;6.83;;;3.53;;
17596;SDS011;8917;50.942;6.946;2023-03-21T00:46:24;7.10;;;3.80;;
17596;SDS011;8917;50.942;6.946;2023-03-21T00:48:51;8.40;;;4.07;;
17596;SDS011;8917;50.942;6.946;2023-03-21T00:51:19;9.73;;;4.33;;
17596;SDS011;8917;50.942;6.946;2023-03-21T00:53:50;7.70;;;4.20;;
17596;SDS011;8917;50.942;6.946;2023-03-21T00:56:17;7.00;;;3.60;;
17596;SDS011;8917;50.942;6.946;2023-03-21T00:58:44;7.83;;;4.20;;
17596;SDS011;8917;50.942;6.946;2023-03-21T01:01:13;6.60;;;4.17;;
17596;SDS011;8917;50.942;6.946;2023-03-21T01:03:40;6.87;;;4.23;;
17596;SDS011;8917;50.942;6.946;2023-03-21T01:06:12;6.17;;;4.13;;
17596;SDS011;8917;50.942;6.946;2023-03-21T01:08:43;8.00;;;4.00;;
17596;SDS011;8917;50.942;6.946;2023-03-21T01:11:11;8.60;;;4.23;;
17596;SDS011;8917;50.942;6.946;2023-03-21T01:13:38;6.77;;;3.83;;
17596;SDS011;8917;50.942;6.946;2023-03-21T01:16:06;9.77;;;4.27;;
17596;SDS011;8917;50.942;6.946;2023-03-21T01:18:36;7.53;;;3.67;;
17596;SDS011;8917;50.942;6.946;2023-03-21T01:21:05;7.27;;;4.37;;
17596;SDS011;8917;50.942;6.946;2023-03-21T01:23:33;7.57;;;4.33;;
17596;SDS011;8917;50.942;6.946;2023-03-21T01:26:00;8.50;;;4.27;;
17596;SDS011;8917;50.942;6.946;2023-03-21T01:28:27;8.00;;;4.27;;
17596;SDS011;8917;50.942;6.946;2023-03-21T01:30:55;12.27;;;4.83;;
17596;SDS011;8917;50.942;6.946;2023-03-21T01:33:23;6.67;;;3.87;;
17596;SDS011;8917;50.942;6.946;2023-03-21T01:35:52;7.47;;;4.17;;
17596;SDS011;8917;50.942;6.946;2023-03-21T01:38:19;9.40;;;4.07;;
17596;SDS011;8917;50.942;6.946;2023-03-21T01:40:48;9.93;;;4.43;;
17596;SDS011;8917;50.942;6.946;2023-03-21T01:43:20;7.83;;;4.20;;
17596;SDS011;8917;50.942;6.946;2023-03-21T01:48:33;9.50;;;4.57;;
17596;SDS011;8917;50.942;6.946;2023-03-21T01:51:02;6.63;;;4.07;;
17596;SDS011;8917;50.942;6.946;2023-03-21T01:53:31;9.27;;;4.13;;
17596;SDS011;8917;50.942;6.946;2023-03-21T01:56:00;7.37;;;4.27;;
17596;SDS011;8917;50.942;6.946;2023-03-21T01:58:28;8.50;;;4.40;;
17596;SDS011;8917;50.942;6.946;2023-03-21T02:00:56;9.20;;;4.47;;
17596;SDS011;8917;50.942;6.946;2023-03-21T02:03:24;10.67;;;4.33;;
17596;SDS011;8917;50.942;6.946;2023-03-21T02:05:54;6.67;;;4.70;;
17596;SDS011;8917;50.942;6.946;2023-03-21T02:08:25;7.53;;;4.50;;
17596;SDS011;8917;50.942;6.946;2023-03-21T02:10:53;6.47;;;4.10;;
17596;SDS011;8917;50.942;6.946;2023-03-21T02:13:20;6.50;;;4.30;;
17596;SDS011;8917;50.942;6.946;2023-03-21T02:15:49;9.73;;;4.83;;
17596;SDS011;8917;50.942;6.946;2023-03-21T02:18:21;7.67;;;4.30;;
17596;SDS011;8917;50.942;6.946;2023-03-21T02:20:56;8.40;;;4.20;;
17596;SDS011;8917;50.942;6.946;2023-03-21T02:23:35;8.97;;;4.77;;
17596;SDS011;8917;50.942;6.946;2023-03-21T02:26:15;10.17;;;4.30;;
17596;SDS011;8917;50.942;6.946;2023-03-21T02:28:46;6.73;;;4.03;;
17596;SDS011;8917;50.942;6.946;2023-03-21T02:31:18;8.30;;;5.07;;
17596;SDS011;8917;50.942;6.946;2023-03-21T02:33:57;9.20;;;4.73;;
17596;SDS011;8917;50.942;6.946;2023-03-21T02:36:27;10.57;;;4.30;;
17596;SDS011;8917;50.942;6.946;2023-03-21T02:39:00;9.00;;;4.53;;
17596;SDS011;8917;50.942;6.946;2023-03-21T02:41:29;7.77;;;4.27;;
17596;SDS011;8917;50.942;6.946;2023-03-21T02:44:00;7.83;;;3.93;;
17596;SDS011;8917;50.942;6.946;2023-03-21T02:46:31;9.37;;;4.17;;
17596;SDS011;8917;50.942;6.946;2023-03-21T02:49:05;9.67;;;4.20;;
17596;SDS011;8917;50.942;6.946;2023-03-21T02:51:33;7.77;;;4.10;;
17596;SDS011;8917;50.942;6.946;2023-03-21T02:54:04;7.80;;;4.07;;
17596;SDS011;8917;50.942;6.946;2023-03-21T02:56:33;8.70;;;3.80;;
17596;SDS011;8917;50.942;6.946;2023-03-21T02:59:02;10.47;;;4.27;;
17596;SDS011;8917;50.942;6.946;2023-03-21T03:01:30;9.10;;;3.77;;
17596;SDS011;8917;50.942;6.946;2023-03-21T03:03:57;9.60;;;4.60;;
17596;SDS011;8917;50.942;6.946;2023-03-21T03:06:25;6.77;;;4.23;;
17596;SDS011;8917;50.942;6.946;2023-03-21T03:08:56;8.83;;;3.90;;
17596;SDS011;8917;50.942;6.946;2023-03-21T03:11:30;9.07;;;4.20;;
17596;SDS011;8917;50.942;6.946;2023-03-21T03:14:03;6.10;;;3.60;;
17596;SDS011;8917;50.942;6.946;2023-03-21T03:16:36;9.87;;;4.37;;
17596;SDS011;8917;50.942;6.946;2023-03-21T03:19:06;6.83;;;3.70;;
17596;SDS011;8917;50.942;6.946;2023-03-21T03:21:36;7.27;;;3.70;;
17596;SDS011;8917;50.942;6.946;2023-03-21T03:24:07;8.30;;;4.23;;
17596;SDS011;8917;50.942;6.946;2023-03-21T03:26:38;8.47;;;4.00;;
17596;SDS011;8917;50.942;6.946;2023-03-21T03:29:06;8.87;;;3.80;;
17596;SDS011;8917;50.942;6.946;2023-03-21T03:31:34;8.03;;;4.43;;
17596;SDS011;8917;50.942;6.946;2023-03-21T03:34:04;7.13;;;3.87;;
17596;SDS011;8917;50.942;6.946;2023-03-21T03:36:34;8.13;;;4.10;;
17596;SDS011;8917;50.942;6.946;2023-03-21T03:39:04;8.50;;;4.00;;
17596;SDS011;8917;50.942;6.946;2023-03-21T03:41:33;7.77;;;3.67;;
17596;SDS011;8917;50.942;6.946;2023-03-21T03:44:04;6.93;;;3.43;;
17596;SDS011;8917;50.942;6.946;2023-03-21T03:46:31;7.13;;;4.30;;
17596;SDS011;8917;50.942;6.946;2023-03-21T03:49:01;7.13;;;3.87;;
17596;SDS011;8917;50.942;6.946;2023-03-21T03:51:31;8.77;;;3.63;;
17596;SDS011;8917;50.942;6.946;2023-03-21T03:54:00;6.60;;;3.90;;
17596;SDS011;8917;50.942;6.946;2023-03-21T03:56:30;7.70;;;3.90;;
17596;SDS011;8917;50.942;6.946;2023-03-21T03:58:57;9.10;;;4.10;;
17596;SDS011;8917;50.942;6.946;2023-03-21T04:01:26;6.43;;;3.50;;
17596;SDS011;8917;50.942;6.946;2023-03-21T04:03:53;7.33;;;3.70;;
17596;SDS011;8917;50.942;6.946;2023-03-21T04:06:21;8.47;;;4.30;;
17596;SDS011;8917;50.942;6.946;2023-03-21T04:08:48;5.73;;;3.63;;
17596;SDS011;8917;50.942;6.946;2023-03-21T04:11:15;7.70;;;4.00;;
17596;SDS011;8917;50.942;6.946;2023-03-21T04:13:42;11.37;;;4.00;;
17596;SDS011;8917;50.942;6.946;2023-03-21T04:16:09;7.00;;;4.10;;
17596;SDS011;8917;50.942;6.946;2023-03-21T04:18:39;11.23;;;4.10;;
17596;SDS011;8917;50.942;6.946;2023-03-21T04:21:08;6.17;;;3.70;;
17596;SDS011;8917;50.942;6.946;2023-03-21T04:23:36;7.73;;;3.67;;
17596;SDS011;8917;50.942;6.946;2023-03-21T04:26:04;7.03;;;3.90;;
17596;SDS011;8917;50.942;6.946;2023-03-21T04:28:32;7.03;;;4.20;;
17596;SDS011;8917;50.942;6.946;2023-03-21T04:31:00;8.53;;;3.83;;
17596;SDS011;8917;50.942;6.946;2023-03-21T04:33:27;8.40;;;3.93;;
17596;SDS011;8917;50.942;6.946;2023-03-21T04:35:56;7.93;;;4.10;;
17596;SDS011;8917;50.942;6.946;2023-03-21T04:38:24;6.23;;;3.70;;
17596;SDS011;8917;50.942;6.946;2023-03-21T04:40:54;13.33;;;4.30;;
17596;SDS011;8917;50.942;6.946;2023-03-21T04:43:22;11.43;;;4.30;;
17596;SDS011;8917;50.942;6.946;2023-03-21T04:45:49;8.27;;;3.73;;
17596;SDS011;8917;50.942;6.946;2023-03-21T04:48:16;7.80;;;3.87;;
17596;SDS011;8917;50.942;6.946;2023-03-21T04:50:44;5.63;;;3.73;;
17596;SDS011;8917;50.942;6.946;2023-03-21T04:53:12;9.20;;;4.47;;
17596;SDS011;8917;50.942;6.946;2023-03-21T04:55:40;7.17;;;4.03;;
17596;SDS011;8917;50.942;6.946;2023-03-21T04:58:07;9.03;;;3.90;;
17596;SDS011;8917;50.942;6.946;2023-03-21T05:00:34;5.00;;;3.33;;
17596;SDS011;8917;50.942;6.946;2023-03-21T05:03:03;7.33;;;4.03;;
17596;SDS011;8917;50.942;6.946;2023-03-21T05:05:33;12.27;;;3.87;;
17596;SDS011;8917;50.942;6.946;2023-03-21T05:08:00;9.73;;;4.23;;
17596;SDS011;8917;50.942;6.946;2023-03-21T05:10:29;9.27;;;3.77;;
17596;SDS011;8917;50.942;6.946;2023-03-21T05:12:56;9.50;;;4.07;;
17596;SDS011;8917;50.942;6.946;2023-03-21T05:15:23;9.43;;;3.90;;
17596;SDS011;8917;50.942;6.946;2023-03-21T05:17:50;5.53;;;3.33;;
17596;SDS011;8917;50.942;6.946;2023-03-21T05:20:17;7.20;;;3.90;;
17596;SDS011;8917;50.942;6.946;2023-03-21T05:22:44;8.47;;;3.90;;
17596;SDS011;8917;50.942;6.946;2023-03-21T05:25:15;7.33;;;4.57;;
17596;SDS011;8917;50.942;6.946;2023-03-21T05:28:00;6.83;;;3.80;;
17596;SDS011;8917;50.942;6.946;2023-03-21T05:30:27;10.83;;;4.10;;
17596;SDS011;8917;50.942;6.946;2023-03-21T05:32:55;7.60;;;3.43;;
17596;SDS011;8917;50.942;6.946;2023-03-21T05:35:22;7.80;;;3.97;;
17596;SDS011;8917;50.942;6.946;2023-03-21T05:37:49;7.20;;;3.90;;
17596;SDS011;8917;50.942;6.946;2023-03-21T05:40:17;7.20;;;3.93;;
17596;SDS011;8917;50.942;6.946;2023-03-21T05:42:44;7.23;;;3.93;;
17596;SDS011;8917;50.942;6.946;2023-03-21T05:45:13;10.80;;;4.30;;
17596;SDS011;8917;50.942;6.946;2023-03-21T05:47:40;8.73;;;4.20;;
17596;SDS011;8917;50.942;6.946;2023-03-21T05:50:08;7.03;;;3.90;;
17596;SDS011;8917;50.942;6.946;2023-03-21T05:52:35;11.83;;;4.80;;
17596;SDS011;8917;50.942;6.946;2023-03-21T05:55:03;12.90;;;4.83;;
17596;SDS011;8917;50.942;6.946;2023-03-21T05:57:31;6.53;;;3.90;;
17596;SDS011;8917;50.942;6.946;2023-03-21T06:00:03;8.43;;;4.27;;
17596;SDS011;8917;50.942;6.946;2023-03-21T06:05:00;7.17;;;3.60;;
17596;SDS011;8917;50.942;6.946;2023-03-21T06:07:27;9.83;;;4.40;;
17596;SDS011;8917;50.942;6.946;2023-03-21T06:09:55;11.43;;;4.37;;
17596;SDS011;8917;50.942;6.946;2023-03-21T06:12:22;7.37;;;3.90;;
17596;SDS011;8917;50.942;6.946;2023-03-21T06:14:49;7.17;;;4.33;;
17596;SDS011;8917;50.942;6.946;2023-03-21T06:17:16;9.27;;;4.93;;
17596;SDS011;8917;50.942;6.946;2023-03-21T06:19:43;15.60;;;4.33;;
17596;SDS011;8917;50.942;6.946;2023-03-21T06:22:12;7.93;;;4.17;;
17596;SDS011;8917;50.942;6.946;2023-03-21T06:24:39;8.20;;;4.10;;
17596;SDS011;8917;50.942;6.946;2023-03-21T06:27:06;7.47;;;3.93;;
17596;SDS011;8917;50.942;6.946;2023-03-21T06:29:33;7.63;;;4.33;;
17596;SDS011;8917;50.942;6.946;2023-03-21T06:32:00;7.50;;;4.23;;
17596;SDS011;8917;50.942;6.946;2023-03-21T06:34:28;14.50;;;5.07;;
17596;SDS011;8917;50.942;6.946;2023-03-21T06:36:55;10.63;;;4.43;;
17596;SDS011;8917;50.942;6.946;2023-03-21T06:39:23;9.97;;;4.80;;
17596;SDS011;8917;50.942;6.946;2023-03-21T06:41:51;13.50;;;4.37;;
17596;SDS011;8917;50.942;6.946;2023-03-21T06:44:18;15.20;;;5.23;;
17596;SDS011;8917;50.942;6.946;2023-03-21T06:46:46;10.17;;;4.50;;
17596;SDS011;8917;50.942;6.946;2023-03-21T06:49:13;13.43;;;5.13;;
17596;SDS011;8917;50.942;6.946;2023-03-21T06:51:40;8.70;;;4.20;;
17596;SDS011;8917;50.942;6.946;2023-03-21T06:54:07;12.20;;;4.37;;
17596;SDS011;8917;50.942;6.946;2023-03-21T06:56:36;9.70;;;4.50;;
17596;SDS011;8917;50.942;6.946;2023-03-21T06:59:03;11.93;;;5.03;;
17596;SDS011;8917;50.942;6.946;2023-03-21T07:01:31;14.73;;;6.70;;
17596;SDS011;8917;50.942;6.946;2023-03-21T07:03:58;16.53;;;5.17;;
17596;SDS011;8917;50.942;6.946;2023-03-21T07:06:25;11.77;;;5.07;;
17596;SDS011;8917;50.942;6.946;2023-03-21T07:08:53;11.40;;;5.43;;
17596;SDS011;8917;50.942;6.946;2023-03-21T07:11:21;7.70;;;4.63;;
17596;SDS011;8917;50.942;6.946;2023-03-21T07:13:50;8.80;;;4.40;;
17596;SDS011;8917;50.942;6.946;2023-03-21T07:16:18;8.70;;;4.73;;
17596;SDS011;8917;50.942;6.946;2023-03-21T07:18:46;9.83;;;5.37;;
17596;SDS011;8917;50.942;6.946;2023-03-21T07:21:13;12.57;;;4.90;;
17596;SDS011;8917;50.942;6.946;2023-03-21T07:23:40;9.87;;;5.20;;
17596;SDS011;8917;50.942;6.946;2023-03-21T07:26:07;7.60;;;4.77;;
17596;SDS011;8917;50.942;6.946;2023-03-21T07:28:35;12.73;;;5.67;;
17596;SDS011;8917;50.942;6.946;2023-03-21T07:31:04;9.70;;;4.97;;
17596;SDS011;8917;50.942;6.946;2023-03-21T07:33:33;13.23;;;5.33;;
17596;SDS011;8917;50.942;6.946;2023-03-21T07:36:00;11.43;;;5.23;;
17596;SDS011;8917;50.942;6.946;2023-03-21T07:38:28;9.23;;;5.00;;
17596;SDS011;8917;50.942;6.946;2023-03-21T07:40:57;12.80;;;5.37;;
17596;SDS011;8917;50.942;6.946;2023-03-21T07:43:24;8.87;;;4.83;;
17596;SDS011;8917;50.942;6.946;2023-03-21T07:45:55;11.87;;;5.27;;
17596;SDS011;8917;50.942;6.946;2023-03-21T07:48:23;9.77;;;5.23;;
17596;SDS011;8917;50.942;6.946;2023-03-21T07:50:51;9.87;;;4.80;;
17596;SDS011;8917;50.942;6.946;2023-03-21T07:53:18;10.23;;;5.03;;
17596;SDS011;8917;50.942;6.946;2023-03-21T07:55:48;10.23;;;5.23;;
17596;SDS011;8917;50.942;6.946;2023-03-21T07:58:15;10.60;;;5.50;;
17596;SDS011;8917;50.942;6.946;2023-03-21T08:00:43;9.67;;;5.17;;
17596;SDS011;8917;50.942;6.946;2023-03-21T08:03:10;10.17;;;5.27;;
17596;SDS011;8917;50.942;6.946;2023-03-21T08:05:39;9.37;;;5.07;;
17596;SDS011;8917;50.942;6.946;2023-03-21T08:08:06;12.73;;;5.90;;
17596;SDS011;8917;50.942;6.946;2023-03-21T08:10:33;12.87;;;6.83;;
17596;SDS011;8917;50.942;6.946;2023-03-21T08:13:01;11.53;;;5.23;;
17596;SDS011;8917;50.942;6.946;2023-03-21T08:15:28;11.03;;;6.73;;
17596;SDS011;8917;50.942;6.946;2023-03-21T08:17:56;10.60;;;5.47;;
17596;SDS011;8917;50.942;6.946;2023-03-21T08:20:24;12.07;;;5.10;;
17596;SDS011;8917;50.942;6.946;2023-03-21T08:22:53;7.93;;;5.07;;
17596;SDS011;8917;50.942;6.946;2023-03-21T08:25:20;6.90;;;4.70;;
17596;SDS011;8917;50.942;6.946;2023-03-21T08:27:48;11.23;;;5.03;;
17596;SDS011;8917;50.942;6.946;2023-03-21T08:30:16;7.60;;;5.70;;
17596;SDS011;8917;50.942;6.946;2023-03-21T08:32:43;9.87;;;5.87;;
17596;SDS011;8917;50.942;6.946;2023-03-21T08:35:12;10.97;;;6.60;;
17596;SDS011;8917;50.942;6.946;2023-03-21T08:37:40;14.00;;;6.47;;
17596;SDS011;8917;50.942;6.946;2023-03-21T08:40:10;10.13;;;5.93;;
17596;SDS011;8917;50.942;6.946;2023-03-21T08:42:37;10.63;;;5.93;;
17596;SDS011;8917;50.942;6.946;2023-03-21T08:45:05;12.67;;;6.00;;
17596;SDS011;8917;50.942;6.946;2023-03-21T08:47:33;9.40;;;5.73;;
17596;SDS011;8917;50.942;6.946;2023-03-21T08:50:00;12.37;;;5.27;;
17596;SDS011;8917;50.942;6.946;2023-03-21T08:52:28;9.93;;;5.90;;
17596;SDS011;8917;50.942;6.946;2023-03-21T08:54:55;10.23;;;5.40;;
17596;SDS011;8917;50.942;6.946;2023-03-21T08:57:23;11.00;;;5.67;;
17596;SDS011;8917;50.942;6.946;2023-03-21T08:59:51;9.57;;;5.10;;
17596;SDS011;8917;50.942;6.946;2023-03-21T09:02:18;8.93;;;4.57;;
17596;SDS011;8917;50.942;6.946;2023-03-21T09:04:45;7.47;;;4.47;;
17596;SDS011;8917;50.942;6.946;2023-03-21T09:07:12;8.70;;;5.00;;
17596;SDS011;8917;50.942;6.946;2023-03-21T09:09:41;8.37;;;5.10;;
17596;SDS011;8917;50.942;6.946;2023-03-21T09:12:08;9.43;;;5.27;;
17596;SDS011;8917;50.942;6.946;2023-03-21T09:14:37;7.67;;;5.20;;
17596;SDS011;8917;50.942;6.946;2023-03-21T09:17:05;11.87;;;5.10;;
17596;SDS011;8917;50.942;6.946;2023-03-21T09:19:32;8.77;;;4.83;;
17596;SDS011;8917;50.942;6.946;2023-03-21T09:21:59;9.23;;;5.77;;
17596;SDS011;8917;50.942;6.946;2023-03-21T09:24:27;9.70;;;5.07;;
17596;SDS011;8917;50.942;6.946;2023-03-21T09:26:55;9.63;;;5.27;;
17596;SDS011;8917;50.942;6.946;2023-03-21T09:29:22;9.07;;;5.13;;
17596;SDS011;8917;50.942;6.946;2023-03-21T09:31:51;11.00;;;5.37;;
17596;SDS011;8917;50.942;6.946;2023-03-21T09:34:18;10.40;;;5.40;;
17596;SDS011;8917;50.942;6.946;2023-03-21T09:36:45;8.23;;;5.47;;
17596;SDS011;8917;50.942;6.946;2023-03-21T09:39:15;8.93;;;5.10;;
17596;SDS011;8917;50.942;6.946;2023-03-21T09:41:45;6.87;;;4.63;;
17596;SDS011;8917;50.942;6.946;2023-03-21T09:44:20;11.57;;;5.27;;
17596;SDS011;8917;50.942;6.946;2023-03-21T09:46:52;7.73;;;4.93;;
17596;SDS011;8917;50.942;6.946;2023-03-21T09:49:22;9.60;;;5.57;;
17596;SDS011;8917;50.942;6.946;2023-03-21T09:51:55;9.13;;;5.47;;
17596;SDS011;8917;50.942;6.946;2023-03-21T09:54:29;7.60;;;5.47;;
17596;SDS011;8917;50.942;6.946;2023-03-21T09:57:01;12.20;;;5.80;;
17596;SDS011;8917;50.942;6.946;2023-03-21T09:59:31;8.93;;;5.43;;
17596;SDS011;8917;50.942;6.946;2023-03-21T10:02:03;10.93;;;6.03;;
17596;SDS011;8917;50.942;6.946;2023-03-21T10:04:40;12.60;;;5.80;;
17596;SDS011;8917;50.942;6.946;2023-03-21T10:07:08;7.30;;;5.03;;
17596;SDS011;8917;50.942;6.946;2023-03-21T10:09:42;9.40;;;5.37;;
17596;SDS011;8917;50.942;6.946;2023-03-21T10:12:11;7.20;;;4.63;;
17596;SDS011;8917;50.942;6.946;2023-03-21T10:14:41;10.33;;;5.13;;
17596;SDS011;8917;50.942;6.946;2023-03-21T10:17:15;9.70;;;5.10;;
17596;SDS011;8917;50.942;6.946;2023-03-21T10:19:45;6.73;;;5.20;;
17596;SDS011;8917;50.942;6.946;2023-03-21T10:22:13;7.87;;;5.10;;
17596;SDS011;8917;50.942;6.946;2023-03-21T10:24:40;7.93;;;4.33;;
17596;SDS011;8917;50.942;6.946;2023-03-21T10:27:08;6.93;;;4.40;;
17596;SDS011;8917;50.942;6.946;2023-03-21T10:29:38;8.60;;;4.83;;
17596;SDS011;8917;50.942;6.946;2023-03-21T10:32:07;9.20;;;5.07;;
17596;SDS011;8917;50.942;6.946;2023-03-21T10:34:37;7.57;;;4.83;;
17596;SDS011;8917;50.942;6.946;2023-03-21T10:37:06;8.53;;;4.83;;
17596;SDS011;8917;50.942;6.946;2023-03-21T10:39:33;10.07;;;5.37;;
17596;SDS011;8917;50.942;6.946;2023-03-21T10:42:03;9.43;;;4.27;;
17596;SDS011;8917;50.942;6.946;2023-03-21T10:44:31;20.07;;;5.13;;
17596;SDS011;8917;50.942;6.946;2023-03-21T10:47:02;7.90;;;5.27;;
17596;SDS011;8917;50.942;6.946;2023-03-21T10:49:30;8.53;;;5.13;;
17596;SDS011;8917;50.942;6.946;2023-03-21T10:52:00;11.60;;;6.10;;
17596;SDS011;8917;50.942;6.946;2023-03-21T10:54:28;9.20;;;5.07;;
17596;SDS011;8917;50.942;6.946;2023-03-21T10:56:57;8.37;;;5.60;;
17596;SDS011;8917;50.942;6.946;2023-03-21T10:59:25;11.33;;;5.60;;
17596;SDS011;8917;50.942;6.946;2023-03-21T11:01:54;9.10;;;5.17;;
17596;SDS011;8917;50.942;6.946;2023-03-21T11:04:23;8.10;;;4.77;;
17596;SDS011;8917;50.942;6.946;2023-03-21T11:06:52;8.70;;;4.93;;
17596;SDS011;8917;50.942;6.946;2023-03-21T11:09:22;8.27;;;5.00;;
17596;SDS011;8917;50.942;6.946;2023-03-21T11:11:51;9.53;;;4.87;;
17596;SDS011;8917;50.942;6.946;2023-03-21T11:14:26;8.93;;;4.27;;
17596;SDS011;8917;50.942;6.946;2023-03-21T11:16:54;6.87;;;4.93;;
17596;SDS011;8917;50.942;6.946;2023-03-21T11:19:25;7.07;;;4.37;;
17596;SDS011;8917;50.942;6.946;2023-03-21T11:21:52;9.00;;;5.20;;
17596;SDS011;8917;50.942;6.946;2023-03-21T11:24:24;8.80;;;5.07;;
17596;SDS011;8917;50.942;6.946;2023-03-21T11:26:54;9.73;;;5.30;;
17596;SDS011;8917;50.942;6.946;2023-03-21T11:29:25;9.40;;;4.70;;
17596;SDS011;8917;50.942;6.946;2023-03-21T11:31:56;7.17;;;5.07;;
17596;SDS011;8917;50.942;6.946;2023-03-21T11:34:26;11.63;;;4.53;;
17596;SDS011;8917;50.942;6.946;2023-03-21T11:36:56;5.93;;;5.07;;
17596;SDS011;8917;50.942;6.946;2023-03-21T11:39:29;8.57;;;4.87;;
17596;SDS011;8917;50.942;6.946;2023-03-21T11:41:56;8.67;;;3.40;;
17596;SDS011;8917;50.942;6.946;2023-03-21T11:44:25;6.63;;;5.00;;
17596;SDS011;8917;50.942;6.946;2023-03-21T11:46:53;9.30;;;4.83;;
17596;SDS011;8917;50.942;6.946;2023-03-21T11:49:20;7.07;;;5.03;;
17596;SDS011;8917;50.942;6.946;2023-03-21T11:51:49;7.37;;;4.73;;
17596;SDS011;8917;50.942;6.946;2023-03-21T11:54:19;7.77;;;4.97;;
17596;SDS011;8917;50.942;6.946;2023-03-21T11:56:49;8.87;;;4.90;;
17596;SDS011;8917;50.942;6.946;2023-03-21T11:59:22;10.37;;;4.43;;
17596;SDS011;8917;50.942;6.946;2023-03-21T12:01:54;7.93;;;4.63;;
17596;SDS011;8917;50.942;6.946;2023-03-21T12:04:27;8.77;;;4.63;;
17596;SDS011;8917;50.942;6.946;2023-03-21T12:06:58;5.73;;;3.93;;
17596;SDS011;8917;50.942;6.946;2023-03-21T12:09:30;7.60;;;4.27;;
17596;SDS011;8917;50.942;6.946;2023-03-21T12:12:08;10.63;;;4.80;;
17596;SDS011;8917;50.942;6.946;2023-03-21T12:14:42;6.57;;;4.47;;
17596;SDS011;8917;50.942;6.946;2023-03-21T12:17:14;7.50;;;3.87;;
17596;SDS011;8917;50.942;6.946;2023-03-21T12:19:47;8.23;;;4.43;;
17596;SDS011;8917;50.942;6.946;2023-03-21T12:22:19;5.47;;;3.50;;
17596;SDS011;8917;50.942;6.946;2023-03-21T12:24:50;6.07;;;4.10;;
17596;SDS011;8917;50.942;6.946;2023-03-21T12:27:24;6.87;;;4.37;;
17596;SDS011;8917;50.942;6.946;2023-03-21T12:29:58;6.17;;;3.70;;
17596;SDS011;8917;50.942;6.946;2023-03-21T12:32:32;7.63;;;3.80;;
17596;SDS011;8917;50.942;6.946;2023-03-21T12:35:08;4.97;;;4.13;;
17596;SDS011;8917;50.942;6.946;2023-03-21T12:37:40;7.93;;;4.27;;
17596;SDS011;8917;50.942;6.946;2023-03-21T12:40:14;9.30;;;4.20;;
17596;SDS011;8917;50.942;6.946;2023-03-21T12:42:53;6.07;;;4.13;;
17596;SDS011;8917;50.942;6.946;2023-03-21T12:45:25;7.10;;;3.70;;
17596;SDS011;8917;50.942;6.946;2023-03-21T12:47:54;6.27;;;3.97;;
17596;SDS011;8917;50.942;6.946;2023-03-21T12:50:24;6.93;;;4.10;;
17596;SDS011;8917;50.942;6.946;2023-03-21T12:52:53;9.07;;;4.40;;
17596;SDS011;8917;50.942;6.946;2023-03-21T12:55:22;5.63;;;3.53;;
17596;SDS011;8917;50.942;6.946;2023-03-21T12:57:52;6.10;;;4.17;;
17596;SDS011;8917;50.942;6.946;2023-03-21T13:00:22;6.07;;;4.23;;
17596;SDS011;8917;50.942;6.946;2023-03-21T13:02:52;7.67;;;4.00;;
17596;SDS011;8917;50.942;6.946;2023-03-21T13:05:20;7.43;;;4.20;;
17596;SDS011;8917;50.942;6.946;2023-03-21T13:07:53;9.47;;;3.90;;
17596;SDS011;8917;50.942;6.946;2023-03-21T13:10:22;5.90;;;3.30;;
17596;SDS011;8917;50.942;6.946;2023-03-21T13:12:54;9.23;;;3.80;;
17596;SDS011;8917;50.942;6.946;2023-03-21T13:18:13;6.57;;;3.73;;
17596;SDS011;8917;50.942;6.946;2023-03-21T13:20:42;7.53;;;3.73;;
17596;SDS011;8917;50.942;6.946;2023-03-21T13:23:12;6.27;;;4.20;;
17596;SDS011;8917;50.942;6.946;2023-03-21T13:25:44;6.40;;;4.10;;
17596;SDS011;8917;50.942;6.946;2023-03-21T13:28:20;6.83;;;4.13;;
17596;SDS011;8917;50.942;6.946;2023-03-21T13:30:48;6.67;;;4.40;;
17596;SDS011;8917;50.942;6.946;2023-03-21T13:33:19;6.87;;;4.30;;
17596;SDS011;8917;50.942;6.946;2023-03-21T13:35:53;5.13;;;3.70;;
17596;SDS011;8917;50.942;6.946;2023-03-21T13:38:23;5.93;;;4.10;;
17596;SDS011;8917;50.942;6.946;2023-03-21T13:40:55;6.27;;;3.77;;
17596;SDS011;8917;50.942;6.946;2023-03-21T13:43:41;6.10;;;4.10;;
17596;SDS011;8917;50.942;6.946;2023-03-21T13:46:09;5.37;;;3.80;;
17596;SDS011;8917;50.942;6.946;2023-03-21T13:48:41;6.07;;;4.33;;
17596;SDS011;8917;50.942;6.946;2023-03-21T13:51:08;7.60;;;3.83;;
17596;SDS011;8917;50.942;6.946;2023-03-21T13:53:35;6.80;;;3.63;;
17596;SDS011;8917;50.942;6.946;2023-03-21T13:56:07;5.57;;;3.70;;
17596;SDS011;8917;50.942;6.946;2023-03-21T13:58:36;5.47;;;3.97;;
17596;SDS011;8917;50.942;6.946;2023-03-21T14:01:18;6.47;;;4.23;;
17596;SDS011;8917;50.942;6.946;2023-03-21T14:03:48;5.57;;;3.53;;
17596;SDS011;8917;50.942;6.946;2023-03-21T14:06:15;6.10;;;4.20;;
17596;SDS011;8917;50.942;6.946;2023-03-21T14:08:44;5.93;;;4.20;;
17596;SDS011;8917;50.942;6.946;2023-03-21T14:11:12;5.63;;;4.23;;
17596;SDS011;8917;50.942;6.946;2023-03-21T14:13:42;8.27;;;4.10;;
17596;SDS011;8917;50.942;6.946;2023-03-21T14:16:10;6.07;;;4.83;;
17596;SDS011;8917;50.942;6.946;2023-03-21T14:18:42;7.50;;;4.50;;
17596;SDS011;8917;50.942;6.946;2023-03-21T14:21:13;5.37;;;4.03;;
17596;SDS011;8917;50.942;6.946;2023-03-21T14:23:41;5.63;;;3.83;;
17596;SDS011;8917;50.942;6.946;2023-03-21T14:26:09;6.27;;;4.10;;
17596;SDS011;8917;50.942;6.946;2023-03-21T14:28:36;6.07;;;3.87;;
17596;SDS011;8917;50.942;6.946;2023-03-21T14:31:05;9.10;;;4.40;;
17596;SDS011;8917;50.942;6.946;2023-03-21T14:33:34;7.63;;;4.13;;
17596;SDS011;8917;50.942;6.946;2023-03-21T14:36:04;6.37;;;3.53;;
17596;SDS011;8917;50.942;6.946;2023-03-21T14:38:34;5.53;;;3.47;;
17596;SDS011;8917;50.942;6.946;2023-03-21T14:41:01;5.83;;;3.90;;
17596;SDS011;8917;50.942;6.946;2023-03-21T14:43:29;6.03;;;3.73;;
17596;SDS011;8917;50.942;6.946;2023-03-21T14:45:58;5.63;;;3.80;;
17596;SDS011;8917;50.942;6.946;2023-03-21T14:48:29;5.03;;;3.80;;
17596;SDS011;8917;50.942;6.946;2023-03-21T14:50:59;6.70;;;3.90;;
17596;SDS011;8917;50.942;6.946;2023-03-21T14:53:30;6.73;;;4.23;;
17596;SDS011;8917;50.942;6.946;2023-03-21T14:55:58;6.03;;;3.87;;
17596;SDS011;8917;50.942;6.946;2023-03-21T14:58:26;8.37;;;3.90;;
17596;SDS011;8917;50.942;6.946;2023-03-21T15:00:55;4.87;;;3.97;;
17596;SDS011;8917;50.942;6.946;2023-03-21T15:03:23;7.10;;;4.37;;
17596;SDS011;8917;50.942;6.946;2023-03-21T15:05:52;7.03;;;3.80;;
17596;SDS011;8917;50.942;6.946;2023-03-21T15:08:20;6.33;;;3.97;;
17596;SDS011;8917;50.942;6.946;2023-03-21T15:10:56;5.73;;;4.10;;
17596;SDS011;8917;50.942;6.946;2023-03-21T15:13:24;4.53;;;3.80;;
17596;SDS011;8917;50.942;6.946;2023-03-21T15:15:52;6.40;;;4.37;;
17596;SDS011;8917;50.942;6.946;2023-03-21T15:18:24;7.50;;;4.23;;